sensor_id;sensor_type;location;lat;lon;timestamp;temperature;humidity
39951;DHT22;25629;51.444;-2.606;2022-10-13T00:01:19;14.60;99.90
39951;DHT22;25629;51.444;-2.606;2022-10-13T00:03:46;14.60;99.90
39951;DHT22;25629;51.444;-2.606;2022-10-13T00:06:14;14.70;99.90
39951;DHT22;25629;51.444;-2.606;2022-10-13T00:08:41;14.70;99.90
39951;DHT22;25629;51.444;-2.606;2022-10-13T00:11:11;14.60;99.90
39951;DHT22;25629;51.444;-2.606;2022-10-13T00:13:37;14.70;99.90
39951;DHT22;25629;51.444;-2.606;2022-10-13T00:16:03;14.70;99.90
39951;DHT22;25629;51.444;-2.606;2022-10-13T00:18:29;14.60;99.90
39951;DHT22;25629;51.444;-2.606;2022-10-13T00:20:54;14.60;99.90
39951;DHT22;25629;51.444;-2.606;2022-10-13T00:23:20;14.70;99.90
39951;DHT22;25629;51.444;-2.606;2022-10-13T00:25:48;14.60;99.90
39951;DHT22;25629;51.444;-2.606;2022-10-13T00:28:16;14.60;99.90
39951;DHT22;25629;51.444;-2.606;2022-10-13T00:30:42;14.60;99.90
39951;DHT22;25629;51.444;-2.606;2022-10-13T00:33:09;14.60;99.90
39951;DHT22;25629;51.444;-2.606;2022-10-13T00:35:43;14.60;99.90
39951;DHT22;25629;51.444;-2.606;2022-10-13T00:38:10;14.60;99.90
39951;DHT22;25629;51.444;-2.606;2022-10-13T00:43:45;14.60;99.90
39951;DHT22;25629;51.444;-2.606;2022-10-13T00:46:09;14.50;99.90
39951;DHT22;25629;51.444;-2.606;2022-10-13T00:48:35;14.50;99.90
39951;DHT22;25629;51.444;-2.606;2022-10-13T00:51:00;14.50;99.90
39951;DHT22;25629;51.444;-2.606;2022-10-13T00:53:29;14.50;99.90
39951;DHT22;25629;51.444;-2.606;2022-10-13T00:55:55;14.50;99.90
39951;DHT22;25629;51.444;-2.606;2022-10-13T00:58:23;14.50;99.90
39951;DHT22;25629;51.444;-2.606;2022-10-13T01:00:51;14.50;99.90
39951;DHT22;25629;51.444;-2.606;2022-10-13T01:03:20;14.50;99.90
39951;DHT22;25629;51.444;-2.606;2022-10-13T01:05:47;14.40;99.90
39951;DHT22;25629;51.444;-2.606;2022-10-13T01:08:14;14.40;99.90
39951;DHT22;25629;51.444;-2.606;2022-10-13T01:16:14;14.40;99.90
39951;DHT22;25629;51.444;-2.606;2022-10-13T01:30:35;14.30;99.90
39951;DHT22;25629;51.444;-2.606;2022-10-13T01:33:38;14.20;99.90
39951;DHT22;25629;51.444;-2.606;2022-10-13T01:36:33;14.20;99.90
39951;DHT22;25629;51.444;-2.606;2022-10-13T01:41:41;14.10;99.90
39951;DHT22;25629;51.444;-2.606;2022-10-13T01:44:56;14.10;99.90
39951;DHT22;25629;51.444;-2.606;2022-10-13T01:47:02;14.10;99.90
39951;DHT22;25629;51.444;-2.606;2022-10-13T01:49:32;14.10;99.90
39951;DHT22;25629;51.444;-2.606;2022-10-13T01:52:19;14.10;99.90
39951;DHT22;25629;51.444;-2.606;2022-10-13T01:54:53;14.10;99.90
39951;DHT22;25629;51.444;-2.606;2022-10-13T02:00:08;14.00;99.90
39951;DHT22;25629;51.444;-2.606;2022-10-13T02:05:44;13.90;99.90
39951;DHT22;25629;51.444;-2.606;2022-10-13T02:11:05;14.00;99.90
39951;DHT22;25629;51.444;-2.606;2022-10-13T02:13:35;13.90;99.90
39951;DHT22;25629;51.444;-2.606;2022-10-13T02:16:04;13.90;99.90
39951;DHT22;25629;51.444;-2.606;2022-10-13T02:18:33;13.80;99.90
39951;DHT22;25629;51.444;-2.606;2022-10-13T02:21:02;13.80;99.90
39951;DHT22;25629;51.444;-2.606;2022-10-13T02:23:28;13.70;99.90
39951;DHT22;25629;51.444;-2.606;2022-10-13T02:25:56;13.60;99.90
39951;DHT22;25629;51.444;-2.606;2022-10-13T02:28:24;13.50;99.90
39951;DHT22;25629;51.444;-2.606;2022-10-13T02:30:50;13.50;99.90
39951;DHT22;25629;51.444;-2.606;2022-10-13T02:33:16;13.40;99.90
39951;DHT22;25629;51.444;-2.606;2022-10-13T02:35:42;13.40;99.90
39951;DHT22;25629;51.444;-2.606;2022-10-13T02:38:08;13.30;99.90
39951;DHT22;25629;51.444;-2.606;2022-10-13T02:40:34;13.30;99.90
39951;DHT22;25629;51.444;-2.606;2022-10-13T02:42:59;13.20;99.90
39951;DHT22;25629;51.444;-2.606;2022-10-13T02:45:25;13.20;99.90
39951;DHT22;25629;51.444;-2.606;2022-10-13T02:47:51;13.10;99.90
39951;DHT22;25629;51.444;-2.606;2022-10-13T02:50:17;13.00;99.90
39951;DHT22;25629;51.444;-2.606;2022-10-13T02:52:43;13.00;99.90
39951;DHT22;25629;51.444;-2.606;2022-10-13T02:55:09;12.90;99.90
39951;DHT22;25629;51.444;-2.606;2022-10-13T02:57:35;12.80;99.90
39951;DHT22;25629;51.444;-2.606;2022-10-13T03:00:00;12.80;99.90
39951;DHT22;25629;51.444;-2.606;2022-10-13T03:02:27;12.70;99.90
39951;DHT22;25629;51.444;-2.606;2022-10-13T03:04:53;12.70;99.90
39951;DHT22;25629;51.444;-2.606;2022-10-13T03:07:19;12.70;99.90
39951;DHT22;25629;51.444;-2.606;2022-10-13T03:09:44;12.80;99.90
39951;DHT22;25629;51.444;-2.606;2022-10-13T03:12:10;12.80;99.90
39951;DHT22;25629;51.444;-2.606;2022-10-13T03:14:36;12.80;99.90
39951;DHT22;25629;51.444;-2.606;2022-10-13T03:17:02;12.80;99.90
39951;DHT22;25629;51.444;-2.606;2022-10-13T03:19:28;12.80;99.90
39951;DHT22;25629;51.444;-2.606;2022-10-13T03:21:55;12.80;99.90
39951;DHT22;25629;51.444;-2.606;2022-10-13T03:24:20;12.70;99.90
39951;DHT22;25629;51.444;-2.606;2022-10-13T03:26:46;12.70;99.90
39951;DHT22;25629;51.444;-2.606;2022-10-13T03:29:14;12.70;99.90
39951;DHT22;25629;51.444;-2.606;2022-10-13T03:31:40;12.70;99.90
39951;DHT22;25629;51.444;-2.606;2022-10-13T03:34:07;12.70;99.90
39951;DHT22;25629;51.444;-2.606;2022-10-13T03:36:33;12.70;99.90
39951;DHT22;25629;51.444;-2.606;2022-10-13T03:38:58;12.70;99.90
39951;DHT22;25629;51.444;-2.606;2022-10-13T03:41:24;12.60;99.90
39951;DHT22;25629;51.444;-2.606;2022-10-13T03:43:50;12.60;99.90
39951;DHT22;25629;51.444;-2.606;2022-10-13T03:46:17;12.50;99.90
39951;DHT22;25629;51.444;-2.606;2022-10-13T03:48:43;12.50;99.90
39951;DHT22;25629;51.444;-2.606;2022-10-13T03:51:12;12.50;99.90
39951;DHT22;25629;51.444;-2.606;2022-10-13T03:53:38;12.50;99.90
39951;DHT22;25629;51.444;-2.606;2022-10-13T03:56:05;12.40;99.90
39951;DHT22;25629;51.444;-2.606;2022-10-13T03:58:32;12.40;99.90
39951;DHT22;25629;51.444;-2.606;2022-10-13T04:01:02;12.40;99.90
39951;DHT22;25629;51.444;-2.606;2022-10-13T04:03:29;12.40;99.90
39951;DHT22;25629;51.444;-2.606;2022-10-13T04:05:59;12.40;99.90
39951;DHT22;25629;51.444;-2.606;2022-10-13T04:08:26;12.30;99.90
39951;DHT22;25629;51.444;-2.606;2022-10-13T04:11:04;12.30;99.90
39951;DHT22;25629;51.444;-2.606;2022-10-13T04:13:31;12.20;99.90
39951;DHT22;25629;51.444;-2.606;2022-10-13T04:16:02;12.20;99.90
39951;DHT22;25629;51.444;-2.606;2022-10-13T04:18:28;12.10;99.90
39951;DHT22;25629;51.444;-2.606;2022-10-13T04:20:54;12.00;99.90
39951;DHT22;25629;51.444;-2.606;2022-10-13T04:23:19;12.00;99.90
39951;DHT22;25629;51.444;-2.606;2022-10-13T04:25:45;11.90;99.90
39951;DHT22;25629;51.444;-2.606;2022-10-13T04:28:11;11.90;99.90
39951;DHT22;25629;51.444;-2.606;2022-10-13T04:30:37;11.90;99.90
39951;DHT22;25629;51.444;-2.606;2022-10-13T04:33:03;11.80;99.90
39951;DHT22;25629;51.444;-2.606;2022-10-13T04:35:29;11.80;99.90
39951;DHT22;25629;51.444;-2.606;2022-10-13T04:37:55;11.80;99.90
39951;DHT22;25629;51.444;-2.606;2022-10-13T04:40:24;11.80;99.90
39951;DHT22;25629;51.444;-2.606;2022-10-13T04:42:50;11.80;99.90
39951;DHT22;25629;51.444;-2.606;2022-10-13T04:45:16;11.80;99.90
39951;DHT22;25629;51.444;-2.606;2022-10-13T04:47:42;11.80;99.90
39951;DHT22;25629;51.444;-2.606;2022-10-13T04:50:08;11.70;99.90
39951;DHT22;25629;51.444;-2.606;2022-10-13T04:52:34;11.70;99.90
39951;DHT22;25629;51.444;-2.606;2022-10-13T04:55:00;11.70;99.90
39951;DHT22;25629;51.444;-2.606;2022-10-13T04:57:26;11.60;99.90
39951;DHT22;25629;51.444;-2.606;2022-10-13T04:59:52;11.60;99.90
39951;DHT22;25629;51.444;-2.606;2022-10-13T05:02:18;11.60;99.90
39951;DHT22;25629;51.444;-2.606;2022-10-13T05:04:44;11.60;99.90
39951;DHT22;25629;51.444;-2.606;2022-10-13T05:07:10;11.50;99.90
39951;DHT22;25629;51.444;-2.606;2022-10-13T05:09:36;11.50;99.90
39951;DHT22;25629;51.444;-2.606;2022-10-13T05:12:01;11.50;99.90
39951;DHT22;25629;51.444;-2.606;2022-10-13T05:14:27;11.50;99.90
39951;DHT22;25629;51.444;-2.606;2022-10-13T05:16:53;11.50;99.90
39951;DHT22;25629;51.444;-2.606;2022-10-13T05:19:19;11.40;99.90
39951;DHT22;25629;51.444;-2.606;2022-10-13T05:21:44;11.40;99.90
39951;DHT22;25629;51.444;-2.606;2022-10-13T05:24:10;11.40;99.90
39951;DHT22;25629;51.444;-2.606;2022-10-13T05:26:38;11.50;99.90
39951;DHT22;25629;51.444;-2.606;2022-10-13T05:29:04;11.50;99.90
39951;DHT22;25629;51.444;-2.606;2022-10-13T05:31:32;11.60;99.90
39951;DHT22;25629;51.444;-2.606;2022-10-13T05:33:59;11.60;99.90
39951;DHT22;25629;51.444;-2.606;2022-10-13T05:36:27;11.70;99.90
39951;DHT22;25629;51.444;-2.606;2022-10-13T05:38:56;11.80;99.90
39951;DHT22;25629;51.444;-2.606;2022-10-13T05:41:24;11.80;99.90
39951;DHT22;25629;51.444;-2.606;2022-10-13T05:43:55;11.90;99.90
39951;DHT22;25629;51.444;-2.606;2022-10-13T05:46:22;11.90;99.90
39951;DHT22;25629;51.444;-2.606;2022-10-13T05:48:48;11.90;99.90
39951;DHT22;25629;51.444;-2.606;2022-10-13T05:51:27;12.00;99.90
39951;DHT22;25629;51.444;-2.606;2022-10-13T05:54:01;12.00;99.90
39951;DHT22;25629;51.444;-2.606;2022-10-13T05:56:32;12.00;99.90
39951;DHT22;25629;51.444;-2.606;2022-10-13T05:59:04;12.00;99.90
39951;DHT22;25629;51.444;-2.606;2022-10-13T06:01:34;12.00;99.90
39951;DHT22;25629;51.444;-2.606;2022-10-13T06:04:04;12.00;99.90
39951;DHT22;25629;51.444;-2.606;2022-10-13T06:06:32;12.00;99.90
39951;DHT22;25629;51.444;-2.606;2022-10-13T06:08:59;12.00;99.90
39951;DHT22;25629;51.444;-2.606;2022-10-13T06:11:25;12.00;99.90
39951;DHT22;25629;51.444;-2.606;2022-10-13T06:13:51;12.00;99.90
39951;DHT22;25629;51.444;-2.606;2022-10-13T06:16:17;12.00;99.90
39951;DHT22;25629;51.444;-2.606;2022-10-13T06:18:43;12.00;99.90
39951;DHT22;25629;51.444;-2.606;2022-10-13T06:21:09;12.00;99.90
39951;DHT22;25629;51.444;-2.606;2022-10-13T06:23:34;12.00;99.90
39951;DHT22;25629;51.444;-2.606;2022-10-13T06:26:00;12.00;99.90
39951;DHT22;25629;51.444;-2.606;2022-10-13T06:28:26;12.00;99.90
39951;DHT22;25629;51.444;-2.606;2022-10-13T06:30:52;12.00;99.90
39951;DHT22;25629;51.444;-2.606;2022-10-13T06:33:19;12.00;99.90
39951;DHT22;25629;51.444;-2.606;2022-10-13T06:35:45;12.00;99.90
39951;DHT22;25629;51.444;-2.606;2022-10-13T06:38:11;12.00;99.90
39951;DHT22;25629;51.444;-2.606;2022-10-13T06:40:37;12.10;99.90
39951;DHT22;25629;51.444;-2.606;2022-10-13T06:43:03;12.00;99.90
39951;DHT22;25629;51.444;-2.606;2022-10-13T06:45:29;12.00;99.90
39951;DHT22;25629;51.444;-2.606;2022-10-13T06:47:55;12.00;99.90
39951;DHT22;25629;51.444;-2.606;2022-10-13T06:50:22;12.00;99.90
39951;DHT22;25629;51.444;-2.606;2022-10-13T06:52:47;12.10;99.90
39951;DHT22;25629;51.444;-2.606;2022-10-13T06:55:13;12.10;99.90
39951;DHT22;25629;51.444;-2.606;2022-10-13T06:57:39;12.10;99.90
39951;DHT22;25629;51.444;-2.606;2022-10-13T07:00:06;12.10;99.90
39951;DHT22;25629;51.444;-2.606;2022-10-13T07:02:32;12.20;99.90
39951;DHT22;25629;51.444;-2.606;2022-10-13T07:04:57;12.20;99.90
39951;DHT22;25629;51.444;-2.606;2022-10-13T07:07:23;12.30;99.90
39951;DHT22;25629;51.444;-2.606;2022-10-13T07:09:49;12.20;99.90
39951;DHT22;25629;51.444;-2.606;2022-10-13T07:12:15;12.20;99.90
39951;DHT22;25629;51.444;-2.606;2022-10-13T07:14:41;12.20;99.90
39951;DHT22;25629;51.444;-2.606;2022-10-13T07:17:07;12.20;99.90
39951;DHT22;25629;51.444;-2.606;2022-10-13T07:19:33;12.20;99.90
39951;DHT22;25629;51.444;-2.606;2022-10-13T07:21:58;12.20;99.90
39951;DHT22;25629;51.444;-2.606;2022-10-13T07:24:24;12.20;99.90
39951;DHT22;25629;51.444;-2.606;2022-10-13T07:26:50;12.20;99.90
39951;DHT22;25629;51.444;-2.606;2022-10-13T07:29:16;12.30;99.90
39951;DHT22;25629;51.444;-2.606;2022-10-13T07:31:43;12.30;99.90
39951;DHT22;25629;51.444;-2.606;2022-10-13T07:34:09;12.40;99.90
39951;DHT22;25629;51.444;-2.606;2022-10-13T07:36:34;12.50;99.90
39951;DHT22;25629;51.444;-2.606;2022-10-13T07:39:03;12.50;99.90
39951;DHT22;25629;51.444;-2.606;2022-10-13T07:41:28;12.50;99.90
39951;DHT22;25629;51.444;-2.606;2022-10-13T07:43:55;12.50;99.90
39951;DHT22;25629;51.444;-2.606;2022-10-13T07:46:21;12.60;99.90
39951;DHT22;25629;51.444;-2.606;2022-10-13T07:48:47;12.60;99.90
39951;DHT22;25629;51.444;-2.606;2022-10-13T07:51:13;12.60;99.90
39951;DHT22;25629;51.444;-2.606;2022-10-13T07:53:40;12.60;99.90
39951;DHT22;25629;51.444;-2.606;2022-10-13T07:56:10;12.70;99.90
39951;DHT22;25629;51.444;-2.606;2022-10-13T07:58:37;12.70;99.90
39951;DHT22;25629;51.444;-2.606;2022-10-13T08:01:03;12.70;99.90
39951;DHT22;25629;51.444;-2.606;2022-10-13T08:03:30;12.80;99.90
39951;DHT22;25629;51.444;-2.606;2022-10-13T08:06:00;12.80;99.90
39951;DHT22;25629;51.444;-2.606;2022-10-13T08:08:27;12.80;99.90
39951;DHT22;25629;51.444;-2.606;2022-10-13T08:10:53;12.80;99.90
39951;DHT22;25629;51.444;-2.606;2022-10-13T08:13:19;12.90;99.90
39951;DHT22;25629;51.444;-2.606;2022-10-13T08:15:45;12.90;99.90
39951;DHT22;25629;51.444;-2.606;2022-10-13T08:18:12;12.90;99.90
39951;DHT22;25629;51.444;-2.606;2022-10-13T08:20:43;12.90;99.90
39951;DHT22;25629;51.444;-2.606;2022-10-13T08:23:10;13.00;99.90
39951;DHT22;25629;51.444;-2.606;2022-10-13T08:25:41;13.10;99.90
39951;DHT22;25629;51.444;-2.606;2022-10-13T08:28:17;13.20;99.90
39951;DHT22;25629;51.444;-2.606;2022-10-13T08:30:44;13.30;99.90
39951;DHT22;25629;51.444;-2.606;2022-10-13T08:33:10;13.40;99.90
39951;DHT22;25629;51.444;-2.606;2022-10-13T08:35:36;13.40;99.90
39951;DHT22;25629;51.444;-2.606;2022-10-13T08:38:01;13.30;99.90
39951;DHT22;25629;51.444;-2.606;2022-10-13T08:40:27;13.40;99.90
39951;DHT22;25629;51.444;-2.606;2022-10-13T08:42:53;13.60;99.90
39951;DHT22;25629;51.444;-2.606;2022-10-13T08:45:24;13.80;99.90
39951;DHT22;25629;51.444;-2.606;2022-10-13T08:47:58;13.90;99.90
39951;DHT22;25629;51.444;-2.606;2022-10-13T08:50:29;13.90;99.90
39951;DHT22;25629;51.444;-2.606;2022-10-13T08:52:59;14.00;99.90
39951;DHT22;25629;51.444;-2.606;2022-10-13T08:55:34;14.00;99.90
39951;DHT22;25629;51.444;-2.606;2022-10-13T08:58:01;14.10;99.90
39951;DHT22;25629;51.444;-2.606;2022-10-13T09:00:30;14.10;99.90
39951;DHT22;25629;51.444;-2.606;2022-10-13T09:03:16;14.20;99.90
39951;DHT22;25629;51.444;-2.606;2022-10-13T09:08:35;14.50;99.90
39951;DHT22;25629;51.444;-2.606;2022-10-13T09:11:02;14.70;99.90
39951;DHT22;25629;51.444;-2.606;2022-10-13T09:13:28;14.80;99.90
39951;DHT22;25629;51.444;-2.606;2022-10-13T09:15:54;14.90;99.90
39951;DHT22;25629;51.444;-2.606;2022-10-13T09:18:27;15.20;99.90
39951;DHT22;25629;51.444;-2.606;2022-10-13T09:21:19;15.40;99.90
39951;DHT22;25629;51.444;-2.606;2022-10-13T09:23:45;15.50;99.90
39951;DHT22;25629;51.444;-2.606;2022-10-13T09:26:18;15.60;99.90
39951;DHT22;25629;51.444;-2.606;2022-10-13T09:28:44;15.80;99.90
39951;DHT22;25629;51.444;-2.606;2022-10-13T09:33:45;16.10;99.90
39951;DHT22;25629;51.444;-2.606;2022-10-13T09:36:15;16.10;99.90
39951;DHT22;25629;51.444;-2.606;2022-10-13T09:38:44;16.20;99.90
39951;DHT22;25629;51.444;-2.606;2022-10-13T09:41:29;16.20;99.90
39951;DHT22;25629;51.444;-2.606;2022-10-13T09:46:37;16.20;99.90
39951;DHT22;25629;51.444;-2.606;2022-10-13T09:51:51;16.40;99.90
39951;DHT22;25629;51.444;-2.606;2022-10-13T09:54:27;16.60;99.90
39951;DHT22;25629;51.444;-2.606;2022-10-13T09:57:02;16.80;99.90
39951;DHT22;25629;51.444;-2.606;2022-10-13T09:59:40;16.80;99.90
39951;DHT22;25629;51.444;-2.606;2022-10-13T10:02:30;16.80;99.90
39951;DHT22;25629;51.444;-2.606;2022-10-13T10:05:05;17.10;99.90
39951;DHT22;25629;51.444;-2.606;2022-10-13T10:07:32;17.40;99.90
39951;DHT22;25629;51.444;-2.606;2022-10-13T10:10:08;17.60;99.90
39951;DHT22;25629;51.444;-2.606;2022-10-13T10:12:39;17.70;99.90
39951;DHT22;25629;51.444;-2.606;2022-10-13T10:15:18;17.60;99.90
39951;DHT22;25629;51.444;-2.606;2022-10-13T10:18:01;17.30;99.90
39951;DHT22;25629;51.444;-2.606;2022-10-13T10:39:54;18.20;99.90
39951;DHT22;25629;51.444;-2.606;2022-10-13T10:45:33;17.70;99.90
39951;DHT22;25629;51.444;-2.606;2022-10-13T10:48:23;18.20;99.90
39951;DHT22;25629;51.444;-2.606;2022-10-13T10:50:50;18.80;99.90
39951;DHT22;25629;51.444;-2.606;2022-10-13T10:56:06;19.80;99.90
39951;DHT22;25629;51.444;-2.606;2022-10-13T10:58:44;20.10;99.90
39951;DHT22;25629;51.444;-2.606;2022-10-13T11:01:18;20.40;99.90
39951;DHT22;25629;51.444;-2.606;2022-10-13T11:06:44;20.20;99.90
39951;DHT22;25629;51.444;-2.606;2022-10-13T11:09:10;19.70;99.90
39951;DHT22;25629;51.444;-2.606;2022-10-13T11:11:39;19.10;99.90
39951;DHT22;25629;51.444;-2.606;2022-10-13T11:45:47;19.70;99.90
39951;DHT22;25629;51.444;-2.606;2022-10-13T11:51:31;20.30;99.90
39951;DHT22;25629;51.444;-2.606;2022-10-13T11:56:47;21.10;99.90
39951;DHT22;25629;51.444;-2.606;2022-10-13T12:01:54;21.40;99.90
39951;DHT22;25629;51.444;-2.606;2022-10-13T12:04:22;21.60;99.90
39951;DHT22;25629;51.444;-2.606;2022-10-13T12:06:55;21.10;99.90
39951;DHT22;25629;51.444;-2.606;2022-10-13T12:09:22;20.40;99.90
39951;DHT22;25629;51.444;-2.606;2022-10-13T12:12:19;19.80;99.90
39951;DHT22;25629;51.444;-2.606;2022-10-13T12:14:49;19.60;99.90
39951;DHT22;25629;51.444;-2.606;2022-10-13T12:19:56;19.40;99.90
39951;DHT22;25629;51.444;-2.606;2022-10-13T12:22:23;19.60;99.90
39951;DHT22;25629;51.444;-2.606;2022-10-13T12:24:55;19.70;99.90
39951;DHT22;25629;51.444;-2.606;2022-10-13T12:27:21;19.70;99.90
39951;DHT22;25629;51.444;-2.606;2022-10-13T12:29:47;19.60;99.90
39951;DHT22;25629;51.444;-2.606;2022-10-13T12:32:24;19.50;99.90
39951;DHT22;25629;51.444;-2.606;2022-10-13T12:34:50;19.60;99.90
39951;DHT22;25629;51.444;-2.606;2022-10-13T12:37:26;19.40;99.90
39951;DHT22;25629;51.444;-2.606;2022-10-13T12:39:55;19.40;99.90
39951;DHT22;25629;51.444;-2.606;2022-10-13T12:42:25;19.30;99.90
39951;DHT22;25629;51.444;-2.606;2022-10-13T12:44:53;19.50;99.90
39951;DHT22;25629;51.444;-2.606;2022-10-13T12:55:35;21.90;99.90
39951;DHT22;25629;51.444;-2.606;2022-10-13T12:58:02;23.00;98.80
39951;DHT22;25629;51.444;-2.606;2022-10-13T13:00:29;23.50;99.20
39951;DHT22;25629;51.444;-2.606;2022-10-13T13:05:39;24.10;97.70
39951;DHT22;25629;51.444;-2.606;2022-10-13T13:08:24;24.10;97.60
39951;DHT22;25629;51.444;-2.606;2022-10-13T13:10:56;24.50;97.30
39951;DHT22;25629;51.444;-2.606;2022-10-13T13:13:23;25.20;96.00
39951;DHT22;25629;51.444;-2.606;2022-10-13T13:15:49;26.30;94.40
39951;DHT22;25629;51.444;-2.606;2022-10-13T13:18:36;26.60;93.50
39951;DHT22;25629;51.444;-2.606;2022-10-13T13:21:10;26.00;93.30
39951;DHT22;25629;51.444;-2.606;2022-10-13T13:23:36;24.90;93.70
39951;DHT22;25629;51.444;-2.606;2022-10-13T13:26:17;24.70;95.10
39951;DHT22;25629;51.444;-2.606;2022-10-13T13:28:52;25.40;94.60
39951;DHT22;25629;51.444;-2.606;2022-10-13T13:31:23;26.40;93.00
39951;DHT22;25629;51.444;-2.606;2022-10-13T13:33:49;26.60;92.50
39951;DHT22;25629;51.444;-2.606;2022-10-13T13:36:20;27.30;91.40
39951;DHT22;25629;51.444;-2.606;2022-10-13T13:38:47;27.80;90.40
39951;DHT22;25629;51.444;-2.606;2022-10-13T13:41:13;27.80;91.00
39951;DHT22;25629;51.444;-2.606;2022-10-13T13:43:40;28.00;90.50
39951;DHT22;25629;51.444;-2.606;2022-10-13T13:46:11;28.10;91.10
39951;DHT22;25629;51.444;-2.606;2022-10-13T13:48:38;28.40;90.10
39951;DHT22;25629;51.444;-2.606;2022-10-13T13:51:04;28.40;90.00
39951;DHT22;25629;51.444;-2.606;2022-10-13T13:53:30;27.90;90.40
39951;DHT22;25629;51.444;-2.606;2022-10-13T13:55:56;28.30;90.10
39951;DHT22;25629;51.444;-2.606;2022-10-13T13:58:21;29.00;87.20
39951;DHT22;25629;51.444;-2.606;2022-10-13T14:00:47;28.90;88.80
39951;DHT22;25629;51.444;-2.606;2022-10-13T14:03:13;29.20;86.80
39951;DHT22;25629;51.444;-2.606;2022-10-13T14:05:39;29.70;85.00
39951;DHT22;25629;51.444;-2.606;2022-10-13T14:08:07;29.70;85.20
39951;DHT22;25629;51.444;-2.606;2022-10-13T14:10:33;29.40;85.20
39951;DHT22;25629;51.444;-2.606;2022-10-13T14:13:00;29.50;83.70
39951;DHT22;25629;51.444;-2.606;2022-10-13T14:15:26;29.40;85.60
39951;DHT22;25629;51.444;-2.606;2022-10-13T14:17:52;29.50;85.10
39951;DHT22;25629;51.444;-2.606;2022-10-13T14:20:19;29.40;85.50
39951;DHT22;25629;51.444;-2.606;2022-10-13T14:22:45;29.10;83.40
39951;DHT22;25629;51.444;-2.606;2022-10-13T14:25:11;28.70;83.90
39951;DHT22;25629;51.444;-2.606;2022-10-13T14:27:37;28.10;84.30
39951;DHT22;25629;51.444;-2.606;2022-10-13T14:30:04;28.10;84.00
39951;DHT22;25629;51.444;-2.606;2022-10-13T14:32:30;27.80;84.00
39951;DHT22;25629;51.444;-2.606;2022-10-13T14:34:55;27.00;85.30
39951;DHT22;25629;51.444;-2.606;2022-10-13T14:37:21;26.60;85.50
39951;DHT22;25629;51.444;-2.606;2022-10-13T14:39:47;26.10;86.20
39951;DHT22;25629;51.444;-2.606;2022-10-13T14:42:13;25.70;87.10
39951;DHT22;25629;51.444;-2.606;2022-10-13T14:44:39;25.30;89.20
39951;DHT22;25629;51.444;-2.606;2022-10-13T14:47:04;25.30;87.30
39951;DHT22;25629;51.444;-2.606;2022-10-13T14:49:30;25.30;88.60
39951;DHT22;25629;51.444;-2.606;2022-10-13T14:51:56;25.20;88.60
39951;DHT22;25629;51.444;-2.606;2022-10-13T14:54:22;24.80;88.80
39951;DHT22;25629;51.444;-2.606;2022-10-13T14:56:48;24.30;89.70
39951;DHT22;25629;51.444;-2.606;2022-10-13T14:59:14;23.60;90.80
39951;DHT22;25629;51.444;-2.606;2022-10-13T15:01:40;23.20;91.00
39951;DHT22;25629;51.444;-2.606;2022-10-13T15:04:07;22.90;91.10
39951;DHT22;25629;51.444;-2.606;2022-10-13T15:06:34;22.40;91.60
39951;DHT22;25629;51.444;-2.606;2022-10-13T15:09:00;22.20;91.60
39951;DHT22;25629;51.444;-2.606;2022-10-13T15:11:26;21.90;92.10
39951;DHT22;25629;51.444;-2.606;2022-10-13T15:13:52;21.50;92.90
39951;DHT22;25629;51.444;-2.606;2022-10-13T15:16:20;21.00;93.70
39951;DHT22;25629;51.444;-2.606;2022-10-13T15:18:46;20.70;94.40
39951;DHT22;25629;51.444;-2.606;2022-10-13T15:21:12;20.50;95.30
39951;DHT22;25629;51.444;-2.606;2022-10-13T15:23:39;20.50;95.50
39951;DHT22;25629;51.444;-2.606;2022-10-13T15:26:05;20.50;95.50
39951;DHT22;25629;51.444;-2.606;2022-10-13T15:28:36;20.50;95.70
39951;DHT22;25629;51.444;-2.606;2022-10-13T15:31:03;20.50;95.80
39951;DHT22;25629;51.444;-2.606;2022-10-13T15:33:29;20.40;95.90
39951;DHT22;25629;51.444;-2.606;2022-10-13T15:35:55;20.30;96.10
39951;DHT22;25629;51.444;-2.606;2022-10-13T15:38:22;20.20;96.30
39951;DHT22;25629;51.444;-2.606;2022-10-13T15:40:48;20.30;96.30
39951;DHT22;25629;51.444;-2.606;2022-10-13T15:43:15;20.20;96.70
39951;DHT22;25629;51.444;-2.606;2022-10-13T15:45:41;20.10;96.90
39951;DHT22;25629;51.444;-2.606;2022-10-13T15:48:09;20.10;96.80
39951;DHT22;25629;51.444;-2.606;2022-10-13T15:50:39;19.80;97.20
39951;DHT22;25629;51.444;-2.606;2022-10-13T15:53:05;19.50;97.30
39951;DHT22;25629;51.444;-2.606;2022-10-13T15:55:32;19.40;98.10
39951;DHT22;25629;51.444;-2.606;2022-10-13T15:57:57;19.10;99.20
39951;DHT22;25629;51.444;-2.606;2022-10-13T16:00:23;19.00;99.80
39951;DHT22;25629;51.444;-2.606;2022-10-13T16:02:49;18.90;99.90
39951;DHT22;25629;51.444;-2.606;2022-10-13T16:05:16;18.70;99.90
39951;DHT22;25629;51.444;-2.606;2022-10-13T16:07:42;18.50;99.90
39951;DHT22;25629;51.444;-2.606;2022-10-13T16:10:09;18.40;99.90
39951;DHT22;25629;51.444;-2.606;2022-10-13T16:12:37;18.30;99.90
39951;DHT22;25629;51.444;-2.606;2022-10-13T16:15:04;18.20;99.90
39951;DHT22;25629;51.444;-2.606;2022-10-13T16:17:30;18.10;99.90
39951;DHT22;25629;51.444;-2.606;2022-10-13T16:19:56;18.10;99.90
39951;DHT22;25629;51.444;-2.606;2022-10-13T16:22:22;18.00;99.90
39951;DHT22;25629;51.444;-2.606;2022-10-13T16:24:47;17.90;99.90
39951;DHT22;25629;51.444;-2.606;2022-10-13T16:27:13;17.80;99.90
39951;DHT22;25629;51.444;-2.606;2022-10-13T16:29:38;17.70;99.90
39951;DHT22;25629;51.444;-2.606;2022-10-13T16:32:04;17.60;99.90
39951;DHT22;25629;51.444;-2.606;2022-10-13T16:34:30;17.50;99.90
39951;DHT22;25629;51.444;-2.606;2022-10-13T16:36:55;17.50;99.90
39951;DHT22;25629;51.444;-2.606;2022-10-13T16:39:21;17.40;99.90
39951;DHT22;25629;51.444;-2.606;2022-10-13T16:41:49;17.30;99.90
39951;DHT22;25629;51.444;-2.606;2022-10-13T16:44:16;17.30;99.90
39951;DHT22;25629;51.444;-2.606;2022-10-13T16:46:42;17.20;99.90
39951;DHT22;25629;51.444;-2.606;2022-10-13T16:49:09;17.00;99.90
39951;DHT22;25629;51.444;-2.606;2022-10-13T16:51:35;17.00;99.90
39951;DHT22;25629;51.444;-2.606;2022-10-13T16:54:03;16.90;99.90
39951;DHT22;25629;51.444;-2.606;2022-10-13T16:56:29;16.90;99.90
39951;DHT22;25629;51.444;-2.606;2022-10-13T16:59:00;16.90;99.90
39951;DHT22;25629;51.444;-2.606;2022-10-13T17:01:26;16.80;99.90
39951;DHT22;25629;51.444;-2.606;2022-10-13T17:03:53;16.80;99.90
39951;DHT22;25629;51.444;-2.606;2022-10-13T17:06:21;16.70;99.90
39951;DHT22;25629;51.444;-2.606;2022-10-13T17:08:47;16.70;99.90
39951;DHT22;25629;51.444;-2.606;2022-10-13T17:11:24;16.60;99.90
39951;DHT22;25629;51.444;-2.606;2022-10-13T17:13:51;16.60;99.90
39951;DHT22;25629;51.444;-2.606;2022-10-13T17:16:17;16.50;99.90
39951;DHT22;25629;51.444;-2.606;2022-10-13T17:18:42;16.50;99.90
39951;DHT22;25629;51.444;-2.606;2022-10-13T17:21:09;16.30;99.90
39951;DHT22;25629;51.444;-2.606;2022-10-13T17:23:36;16.30;99.90
39951;DHT22;25629;51.444;-2.606;2022-10-13T17:26:05;16.30;99.90